الصفحة الرئيسية
METAR-TAF:

METAR-TAF

مطار :

نوميا, نيو كاليدونيا

دائرة عرض: 22-15-30S, خط طول: 166-28-22E, ارتفاع: 3 متر

METAR: مفقودة

زمن: 01:08 (14:08 UTC)

توقعات

تاريخ ووقت الإصدار 3ساعات و 8 دقيقة قبل الساعة 11:00UTC
التوقعات صالحة من10 الساعة 12 UTC إلى 11 الساعة 12 UTC
ريح 5 عقدة من الشرق/الشمال الشرقي
الرؤية 10 كم أو أكثر
غيوم قليلة على ارتفاع 3000 قدم
أصبح
من 10 الساعة 23 UTC إلى 11 الساعة 01 UTC
ريح 15 عقدة من الجنوب الشرقي
أصبح
من 11 الساعة 08 UTC إلى 11 الساعة 10 UTC
ريح 5 عقدة من الشرق/الشمال الشرقي

TAF: NWWM 101100Z 1012/1112 06005KT 9999 FEW030 BECMG 1023/1101 14015KT BECMG 1108/1110 07005KT

أرصاد الطقس والتوقعات من أكثر من 4000 مطار (تقارير الطقس للمطار METAR والتنبؤ بالطقس بالمطارTAF).

المحطات المتاحة هي النقط الصفراء والحمراء على الخريطة.

حرك المؤشر فوق النقطة لمعرفة اسم المحطة.

ثم انقر لمعرفة أرصاد وتوقعات الطقس.

لتغيير الخارطة: اضغط على الأزرار الخضراء مع رمز الصليب الأسود للتكبير. على الزر الأخضر مع شرطة للتصغير، أو على الأسهم الخضراء للخرائط المجاورة.


METAR-TAF: